createdAt,value
2023-01-25T00:00:26.519Z,5.93
2023-01-25T00:01:03.226Z,5.85
2023-01-25T00:01:34.652Z,5.05
2023-01-25T00:02:06.103Z,5.10
2023-01-25T00:02:37.502Z,5.35
2023-01-25T00:03:09.007Z,5.68
2023-01-25T00:03:40.362Z,5.07
2023-01-25T00:04:11.716Z,5.37
2023-01-25T00:04:43.074Z,6.10
2023-01-25T00:05:14.473Z,5.63
2023-01-25T00:05:45.804Z,5.32
2023-01-25T00:06:17.171Z,5.57
2023-01-25T00:06:49.099Z,5.40
2023-01-25T00:07:20.463Z,5.28
2023-01-25T00:07:51.807Z,5.47
2023-01-25T00:08:23.470Z,5.68
2023-01-25T00:08:54.826Z,5.55
2023-01-25T00:09:26.442Z,5.07
2023-01-25T00:09:57.779Z,5.10
2023-01-25T00:10:29.146Z,5.43
2023-01-25T00:11:00.499Z,5.05
2023-01-25T00:11:31.846Z,6.03
2023-01-25T00:12:03.258Z,5.57
2023-01-25T00:12:34.631Z,4.57
2023-01-25T00:13:05.990Z,5.97
2023-01-25T00:13:37.369Z,5.55
2023-01-25T00:14:09.935Z,5.38
2023-01-25T00:14:41.343Z,5.15
2023-01-25T00:15:12.700Z,5.63
2023-01-25T00:15:44.052Z,5.88
2023-01-25T00:16:17.581Z,5.07
2023-01-25T00:16:49.110Z,5.68
2023-01-25T00:17:20.529Z,5.45
2023-01-25T00:17:51.878Z,5.60
2023-01-25T00:18:23.254Z,5.50
2023-01-25T00:18:54.642Z,5.30
2023-01-25T00:19:26.256Z,6.30
2023-01-25T00:19:57.604Z,5.25
2023-01-25T00:20:28.969Z,4.88
2023-01-25T00:21:00.325Z,4.78
2023-01-25T00:21:31.702Z,5.82
2023-01-25T00:22:03.062Z,5.55
2023-01-25T00:22:34.411Z,5.47
2023-01-25T00:23:05.775Z,5.88
2023-01-25T00:23:37.129Z,5.30
2023-01-25T00:24:08.643Z,4.82
2023-01-25T00:24:40.043Z,5.70
2023-01-25T00:25:11.386Z,4.80
2023-01-25T00:25:42.744Z,5.38
2023-01-25T00:26:14.267Z,5.30
2023-01-25T00:26:45.691Z,4.57
2023-01-25T00:27:17.049Z,4.93
2023-01-25T00:27:48.546Z,5.28
2023-01-25T00:28:19.895Z,5.32
2023-01-25T00:28:52.030Z,5.05
2023-01-25T00:29:23.430Z,5.35
2023-01-25T00:29:54.782Z,4.97
2023-01-25T00:30:26.106Z,5.18
2023-01-25T00:31:01.126Z,5.25
2023-01-25T00:31:37.755Z,4.70
2023-01-25T00:32:15.287Z,5.40
2023-01-25T00:32:48.161Z,5.03
2023-01-25T00:33:19.639Z,5.00
2023-01-25T00:33:52.381Z,5.15
2023-01-25T00:34:26.510Z,4.57
2023-01-25T00:34:57.829Z,5.13
2023-01-25T00:35:32.081Z,5.63
2023-01-25T00:36:23.392Z,5.45
2023-01-25T00:36:54.788Z,5.20
2023-01-25T00:37:29.221Z,5.57
2023-01-25T00:38:03.963Z,5.32
2023-01-25T00:38:35.327Z,5.15
2023-01-25T00:39:07.468Z,5.43
2023-01-25T00:39:38.901Z,5.57
2023-01-25T00:40:11.083Z,4.63
2023-01-25T00:40:42.393Z,5.13
2023-01-25T00:41:13.766Z,5.22
2023-01-25T00:41:45.126Z,5.28
2023-01-25T00:42:17.292Z,5.35
2023-01-25T00:42:48.660Z,5.20
2023-01-25T00:43:19.991Z,5.57
2023-01-25T00:43:51.349Z,6.00
2023-01-25T00:44:22.727Z,5.13
2023-01-25T00:44:54.062Z,5.20
2023-01-25T00:45:25.460Z,5.07
2023-01-25T00:46:05.982Z,4.57
2023-01-25T00:46:37.356Z,5.30
2023-01-25T00:47:09.541Z,5.70
2023-01-25T00:47:40.915Z,5.05
2023-01-25T00:48:12.280Z,5.60
2023-01-25T00:48:43.680Z,5.25
2023-01-25T00:49:20.108Z,5.20
2023-01-25T00:49:51.496Z,5.80
2023-01-25T00:50:22.863Z,5.13
2023-01-25T00:50:54.221Z,6.18
2023-01-25T00:51:25.845Z,5.45
2023-01-25T00:51:58.084Z,5.93
2023-01-25T00:52:29.435Z,5.63
2023-01-25T00:53:00.779Z,4.90
2023-01-25T00:53:32.138Z,5.30
2023-01-25T00:54:03.493Z,6.25
2023-01-25T00:54:34.924Z,5.07
2023-01-25T00:55:06.845Z,5.45
2023-01-25T00:55:38.397Z,5.82
2023-01-25T00:56:09.772Z,4.93
2023-01-25T00:56:41.122Z,5.38
2023-01-25T00:57:12.485Z,5.55
2023-01-25T00:57:43.868Z,6.05
2023-01-25T00:58:15.231Z,5.67
2023-01-25T00:58:46.663Z,6.07
2023-01-25T00:59:18.004Z,5.70
2023-01-25T00:59:49.368Z,5.72
2023-01-25T01:00:20.753Z,6.10
2023-01-25T01:00:53.176Z,6.13
2023-01-25T01:01:24.615Z,6.20
2023-01-25T01:01:55.990Z,5.55
2023-01-25T01:02:27.333Z,5.78
2023-01-25T01:02:58.692Z,5.43
2023-01-25T01:03:30.061Z,6.40
2023-01-25T01:04:01.456Z,6.10
2023-01-25T01:04:32.926Z,5.18
2023-01-25T01:05:04.436Z,5.80
2023-01-25T01:05:35.778Z,5.38
2023-01-25T01:06:08.876Z,5.93
2023-01-25T01:06:40.621Z,5.65
2023-01-25T01:07:13.081Z,6.07
2023-01-25T01:07:44.465Z,5.80
2023-01-25T01:08:15.921Z,6.60
2023-01-25T01:08:47.296Z,6.28
2023-01-25T01:09:18.886Z,6.03
2023-01-25T01:09:50.234Z,5.75
2023-01-25T01:10:21.916Z,6.32
2023-01-25T01:10:58.117Z,5.22
2023-01-25T01:11:29.487Z,6.35
2023-01-25T01:12:00.874Z,5.80
2023-01-25T01:12:34.314Z,5.35
2023-01-25T01:13:05.686Z,5.55
2023-01-25T01:13:37.079Z,6.13
2023-01-25T01:14:08.425Z,6.18
2023-01-25T01:14:39.789Z,5.68
2023-01-25T01:15:11.336Z,6.18
2023-01-25T01:15:42.698Z,5.10
2023-01-25T01:16:14.188Z,5.70
2023-01-25T01:16:45.969Z,6.18
2023-01-25T01:17:17.351Z,5.70
2023-01-25T01:17:48.672Z,5.75
2023-01-25T01:18:20.029Z,5.40
2023-01-25T01:18:51.456Z,6.55
2023-01-25T01:19:22.848Z,5.07
2023-01-25T01:19:54.202Z,5.53
2023-01-25T01:20:25.560Z,6.13
2023-01-25T01:20:56.966Z,5.35
2023-01-25T01:21:28.389Z,5.40
2023-01-25T01:21:59.737Z,5.13
2023-01-25T01:22:31.078Z,6.53
2023-01-25T01:23:02.447Z,6.32
2023-01-25T01:23:33.866Z,5.10
2023-01-25T01:24:05.522Z,5.85
2023-01-25T01:24:36.966Z,5.70
2023-01-25T01:25:08.970Z,5.43
2023-01-25T01:25:40.442Z,6.03
2023-01-25T01:26:12.960Z,5.20
2023-01-25T01:26:44.315Z,5.55
2023-01-25T01:27:15.647Z,5.45
2023-01-25T01:27:46.988Z,5.20
2023-01-25T01:28:18.360Z,5.00
2023-01-25T01:28:49.767Z,5.85
2023-01-25T01:29:21.145Z,5.78
2023-01-25T01:29:52.495Z,5.13
2023-01-25T01:30:23.889Z,5.00
2023-01-25T01:30:59.511Z,5.47
2023-01-25T01:31:31.004Z,5.70
2023-01-25T01:32:02.581Z,5.00
2023-01-25T01:32:34.166Z,5.38
2023-01-25T01:33:05.739Z,4.97
2023-01-25T01:33:37.104Z,5.57
2023-01-25T01:34:12.015Z,5.63
2023-01-25T01:34:43.354Z,5.28
2023-01-25T01:35:14.746Z,5.20
2023-01-25T01:35:46.087Z,5.20
2023-01-25T01:36:18.747Z,5.22
2023-01-25T01:36:50.178Z,5.40
2023-01-25T01:37:21.622Z,5.65
2023-01-25T01:37:52.958Z,5.72
2023-01-25T01:38:24.549Z,5.60
2023-01-25T01:38:55.953Z,5.47
2023-01-25T01:39:27.300Z,4.90
2023-01-25T01:39:58.654Z,5.22
2023-01-25T01:40:30.047Z,5.15
2023-01-25T01:41:01.377Z,5.10
2023-01-25T01:41:32.723Z,5.53
2023-01-25T01:42:04.138Z,6.57
2023-01-25T01:42:55.367Z,5.40
2023-01-25T01:43:26.739Z,5.20
2023-01-25T01:43:58.067Z,5.88
2023-01-25T01:44:44.506Z,5.32
2023-01-25T01:45:34.307Z,5.28
2023-01-25T01:46:09.423Z,6.13
2023-01-25T01:46:41.374Z,6.07
2023-01-25T01:47:17.916Z,5.40
2023-01-25T01:47:49.289Z,5.78
2023-01-25T01:48:20.642Z,5.22
2023-01-25T01:48:54.702Z,5.20
2023-01-25T01:49:27.435Z,6.20
2023-01-25T01:50:03.488Z,5.65
2023-01-25T01:50:35.460Z,5.23
2023-01-25T01:51:25.565Z,6.30
2023-01-25T01:51:56.907Z,5.20
2023-01-25T01:52:30.636Z,5.45
2023-01-25T01:53:02.045Z,5.07
2023-01-25T01:53:33.935Z,5.07
2023-01-25T01:54:37.486Z,5.78
2023-01-25T01:55:11.178Z,5.10
2023-01-25T01:55:43.093Z,5.85
2023-01-25T01:56:17.936Z,5.57
2023-01-25T01:57:00.615Z,6.60
2023-01-25T01:57:37.515Z,5.90
2023-01-25T01:58:08.914Z,4.85
2023-01-25T01:58:40.878Z,5.78
2023-01-25T01:59:12.507Z,5.57
2023-01-25T01:59:59.255Z,5.15
2023-01-25T02:00:32.539Z,5.43
2023-01-25T02:01:03.969Z,4.75
2023-01-25T02:01:35.424Z,5.80
2023-01-25T02:02:06.860Z,5.32
2023-01-25T02:02:38.295Z,5.28
2023-01-25T02:03:11.134Z,5.30
2023-01-25T02:03:42.717Z,5.20
2023-01-25T02:04:14.445Z,6.10
2023-01-25T02:04:47.290Z,4.93
2023-01-25T02:05:22.607Z,5.57
2023-01-25T02:06:03.226Z,4.35
2023-01-25T02:06:39.628Z,5.15
2023-01-25T02:07:18.888Z,6.32
2023-01-25T02:07:52.134Z,5.00
2023-01-25T02:08:23.556Z,5.80
2023-01-25T02:08:55.433Z,6.03
2023-01-25T02:09:27.701Z,5.53
2023-01-25T02:10:00.055Z,5.68
2023-01-25T02:10:31.524Z,5.50
2023-01-25T02:11:04.086Z,5.20
2023-01-25T02:11:35.785Z,5.88
2023-01-25T02:12:07.690Z,5.22
2023-01-25T02:12:39.219Z,5.10
2023-01-25T02:13:10.674Z,4.82
2023-01-25T02:13:42.017Z,5.55
2023-01-25T02:14:14.724Z,5.43
2023-01-25T02:14:48.500Z,6.07
2023-01-25T02:15:19.892Z,5.38
2023-01-25T02:15:51.791Z,5.43
2023-01-25T02:16:26.158Z,5.65
2023-01-25T02:16:57.987Z,4.97
2023-01-25T02:17:31.003Z,5.65
2023-01-25T02:18:02.391Z,5.90
2023-01-25T02:18:33.736Z,5.07
2023-01-25T02:19:05.301Z,5.25
2023-01-25T02:19:39.444Z,5.32
2023-01-25T02:20:29.391Z,5.40
2023-01-25T02:21:01.647Z,5.47
2023-01-25T02:21:37.898Z,5.07
2023-01-25T02:22:11.210Z,5.13
2023-01-25T02:22:48.555Z,5.38
2023-01-25T02:23:25.730Z,5.53
2023-01-25T02:24:01.294Z,5.78
2023-01-25T02:24:33.106Z,6.05
2023-01-25T02:25:06.184Z,5.78
2023-01-25T02:25:37.832Z,5.45
2023-01-25T02:26:09.447Z,5.22
2023-01-25T02:26:40.902Z,5.18
2023-01-25T02:27:12.253Z,5.22
2023-01-25T02:27:51.011Z,5.43
2023-01-25T02:28:36.311Z,5.43
2023-01-25T02:29:08.574Z,5.18
2023-01-25T02:29:40.309Z,5.32
2023-01-25T02:30:11.714Z,5.43
2023-01-25T02:30:43.553Z,4.80
2023-01-25T02:31:15.084Z,4.78
2023-01-25T02:31:47.465Z,5.07
2023-01-25T02:32:18.908Z,5.80
2023-01-25T02:32:50.307Z,4.82
2023-01-25T02:33:25.619Z,5.28
2023-01-25T02:33:56.961Z,5.55
2023-01-25T02:34:28.372Z,5.60
2023-01-25T02:34:59.712Z,4.65
2023-01-25T02:35:48.236Z,5.85
2023-01-25T02:36:30.266Z,5.90
2023-01-25T02:37:01.846Z,5.57
2023-01-25T02:37:33.449Z,5.85
2023-01-25T02:38:05.581Z,5.13
2023-01-25T02:38:42.370Z,4.57
2023-01-25T02:39:15.354Z,4.90
2023-01-25T02:39:46.724Z,5.45
2023-01-25T02:40:18.379Z,5.30
2023-01-25T02:40:58.822Z,4.72
2023-01-25T02:41:32.460Z,4.88
2023-01-25T02:42:03.818Z,4.93
2023-01-25T02:42:35.210Z,5.22
2023-01-25T02:43:06.579Z,5.63
2023-01-25T02:43:40.040Z,4.47
2023-01-25T02:44:11.355Z,5.10
2023-01-25T02:44:42.766Z,5.25
2023-01-25T02:45:16.084Z,4.38
2023-01-25T02:45:49.568Z,5.43
2023-01-25T02:46:25.626Z,5.03
2023-01-25T02:46:57.149Z,5.30
2023-01-25T02:47:28.614Z,5.18
2023-01-25T02:47:59.961Z,4.97
2023-01-25T02:48:31.312Z,4.82
2023-01-25T02:49:04.275Z,5.82
2023-01-25T02:49:38.704Z,5.50
2023-01-25T02:50:10.470Z,5.00
2023-01-25T02:50:41.925Z,5.72
2023-01-25T02:51:13.292Z,4.53
2023-01-25T02:51:45.998Z,4.55
2023-01-25T02:52:17.342Z,4.63
2023-01-25T02:52:48.761Z,5.05
2023-01-25T02:53:20.125Z,5.25
2023-01-25T02:53:51.649Z,5.37
2023-01-25T02:54:23.606Z,5.60
2023-01-25T02:54:54.948Z,5.17
2023-01-25T02:55:26.298Z,5.25
2023-01-25T02:55:57.720Z,5.00
2023-01-25T02:56:29.429Z,4.40
2023-01-25T02:57:00.775Z,5.20
2023-01-25T02:57:32.102Z,5.90
2023-01-25T02:58:03.523Z,4.55
2023-01-25T02:58:34.990Z,5.30
2023-01-25T02:59:06.666Z,5.30
2023-01-25T02:59:38.034Z,5.37
2023-01-25T03:00:09.761Z,4.82
2023-01-25T03:00:41.163Z,4.18
2023-01-25T03:01:13.348Z,4.10
2023-01-25T03:01:45.216Z,5.10
2023-01-25T03:02:16.631Z,5.35
2023-01-25T03:02:48.069Z,4.93
2023-01-25T03:03:19.449Z,5.18
2023-01-25T03:03:50.800Z,5.43
2023-01-25T03:04:22.191Z,4.53
2023-01-25T03:04:53.528Z,4.55
2023-01-25T03:05:24.909Z,4.82
2023-01-25T03:05:56.290Z,4.63
2023-01-25T03:06:27.598Z,5.10
2023-01-25T03:06:58.949Z,5.00
2023-01-25T03:07:30.335Z,4.97
2023-01-25T03:08:01.709Z,4.50
2023-01-25T03:08:33.351Z,4.80
2023-01-25T03:09:05.587Z,4.50
2023-01-25T03:09:36.973Z,4.63
2023-01-25T03:10:08.685Z,5.03
2023-01-25T03:10:40.016Z,4.10
2023-01-25T03:11:11.354Z,4.07
2023-01-25T03:11:42.702Z,4.93
2023-01-25T03:12:14.052Z,4.45
2023-01-25T03:12:45.406Z,4.57
2023-01-25T03:13:16.741Z,3.92
2023-01-25T03:13:48.105Z,4.43
2023-01-25T03:14:19.475Z,4.90
2023-01-25T03:14:51.143Z,4.68
2023-01-25T03:15:22.500Z,4.45
2023-01-25T03:15:58.666Z,4.15
2023-01-25T03:16:31.133Z,4.15
2023-01-25T03:17:02.516Z,4.60
2023-01-25T03:17:33.876Z,4.72
2023-01-25T03:18:05.247Z,4.68
2023-01-25T03:18:37.193Z,4.93
2023-01-25T03:19:08.585Z,4.43
2023-01-25T03:19:39.943Z,4.65
2023-01-25T03:20:11.765Z,4.22
2023-01-25T03:20:43.108Z,5.03
2023-01-25T03:21:18.998Z,4.53
2023-01-25T03:21:50.362Z,4.63
2023-01-25T03:22:21.701Z,4.63
2023-01-25T03:22:53.275Z,4.45
2023-01-25T03:23:24.615Z,4.47
2023-01-25T03:23:57.870Z,4.43
2023-01-25T03:24:29.356Z,4.60
2023-01-25T03:25:00.762Z,4.68
2023-01-25T03:25:32.170Z,4.35
2023-01-25T03:26:13.540Z,4.22
2023-01-25T03:26:44.954Z,4.80
2023-01-25T03:27:16.301Z,4.45
2023-01-25T03:27:48.383Z,5.47
2023-01-25T03:28:19.722Z,4.50
2023-01-25T03:28:51.178Z,4.38
2023-01-25T03:29:22.540Z,4.28
2023-01-25T03:29:53.881Z,4.65
2023-01-25T03:30:25.267Z,4.63
2023-01-25T03:30:56.618Z,3.60
2023-01-25T03:31:28.062Z,4.60
2023-01-25T03:31:59.629Z,5.13
2023-01-25T03:32:31.090Z,4.18
2023-01-25T03:33:02.634Z,4.13
2023-01-25T03:33:34.020Z,4.93
2023-01-25T03:34:05.381Z,4.28
2023-01-25T03:34:36.945Z,4.80
2023-01-25T03:35:08.880Z,4.70
2023-01-25T03:35:40.404Z,4.57
2023-01-25T03:36:11.797Z,4.30
2023-01-25T03:36:43.201Z,3.92
2023-01-25T03:37:14.557Z,4.50
2023-01-25T03:37:45.906Z,5.07
2023-01-25T03:38:17.229Z,4.10
2023-01-25T03:38:48.574Z,4.38
2023-01-25T03:39:19.916Z,4.55
2023-01-25T03:39:51.265Z,4.63
2023-01-25T03:40:22.612Z,4.47
2023-01-25T03:40:54.159Z,3.97
2023-01-25T03:41:25.598Z,3.90
2023-01-25T03:41:56.948Z,3.90
2023-01-25T03:42:28.306Z,3.65
2023-01-25T03:42:59.696Z,4.28
2023-01-25T03:43:31.780Z,4.37
2023-01-25T03:44:03.172Z,3.55
2023-01-25T03:44:34.536Z,3.90
2023-01-25T03:45:06.148Z,4.00
2023-01-25T03:45:37.485Z,3.67
2023-01-25T03:46:08.833Z,4.18
2023-01-25T03:46:41.028Z,3.17
2023-01-25T03:47:12.534Z,4.25
2023-01-25T03:47:43.929Z,4.40
2023-01-25T03:48:15.280Z,4.13
2023-01-25T03:48:46.630Z,3.75
2023-01-25T03:49:17.954Z,4.28
2023-01-25T03:49:49.303Z,4.20
2023-01-25T03:50:20.674Z,3.80
2023-01-25T03:50:52.970Z,3.88
2023-01-25T03:51:24.347Z,4.15
2023-01-25T03:51:55.715Z,3.80
2023-01-25T03:52:29.367Z,4.22
2023-01-25T03:53:08.281Z,3.67
2023-01-25T03:53:39.635Z,4.15
2023-01-25T03:54:10.991Z,3.92
2023-01-25T03:54:42.485Z,4.05
2023-01-25T03:55:13.824Z,4.28
2023-01-25T03:55:45.258Z,4.38
2023-01-25T03:56:16.616Z,3.90
2023-01-25T03:56:48.027Z,5.03
2023-01-25T03:57:19.352Z,4.23
2023-01-25T03:57:50.693Z,3.83
2023-01-25T03:58:22.328Z,3.58
2023-01-25T03:58:53.716Z,4.22
2023-01-25T03:59:25.177Z,3.80
2023-01-25T03:59:56.518Z,4.13
2023-01-25T04:00:27.855Z,3.97
2023-01-25T04:01:00.091Z,3.45
2023-01-25T04:01:31.516Z,3.58
2023-01-25T04:02:02.985Z,3.97
2023-01-25T04:02:34.572Z,4.30
2023-01-25T04:03:05.971Z,3.33
2023-01-25T04:03:37.369Z,3.90
2023-01-25T04:04:08.730Z,3.95
2023-01-25T04:04:40.091Z,4.10
2023-01-25T04:05:11.556Z,4.40
2023-01-25T04:05:42.993Z,4.00
2023-01-25T04:06:14.326Z,3.75
2023-01-25T04:06:45.680Z,3.75
2023-01-25T04:07:17.077Z,3.42
2023-01-25T04:07:48.432Z,3.83
2023-01-25T04:08:20.140Z,4.35
2023-01-25T04:08:51.957Z,3.97
2023-01-25T04:09:23.311Z,4.38
2023-01-25T04:09:54.630Z,3.78
2023-01-25T04:10:26.029Z,4.20
2023-01-25T04:11:00.387Z,3.80
2023-01-25T04:11:31.728Z,3.30
2023-01-25T04:12:03.085Z,3.10
2023-01-25T04:12:34.447Z,4.20
2023-01-25T04:13:05.808Z,3.60
2023-01-25T04:13:37.912Z,3.58
2023-01-25T04:14:10.107Z,4.05
2023-01-25T04:14:44.645Z,4.05
2023-01-25T04:15:16.375Z,3.97
2023-01-25T04:15:47.827Z,3.70
2023-01-25T04:16:19.261Z,3.55
2023-01-25T04:16:50.731Z,3.90
2023-01-25T04:17:22.106Z,4.55
2023-01-25T04:17:53.566Z,4.38
2023-01-25T04:18:24.911Z,3.95
2023-01-25T04:18:56.246Z,4.10
2023-01-25T04:19:27.580Z,3.87
2023-01-25T04:19:58.932Z,3.70
2023-01-25T04:20:30.257Z,4.10
2023-01-25T04:21:01.603Z,4.25
2023-01-25T04:21:32.970Z,3.90
2023-01-25T04:22:04.330Z,3.78
2023-01-25T04:22:35.705Z,4.10
2023-01-25T04:23:07.180Z,3.83
2023-01-25T04:23:38.539Z,4.03
2023-01-25T04:24:09.914Z,4.32
2023-01-25T04:24:41.287Z,3.60
2023-01-25T04:25:12.703Z,4.00
2023-01-25T04:25:44.037Z,4.43
2023-01-25T04:26:15.772Z,3.60
2023-01-25T04:26:47.113Z,3.85
2023-01-25T04:27:18.460Z,4.72
2023-01-25T04:27:50.038Z,4.55
2023-01-25T04:28:21.443Z,3.45
2023-01-25T04:28:52.778Z,3.95
2023-01-25T04:29:35.536Z,4.13
2023-01-25T04:30:11.833Z,4.55
2023-01-25T04:30:43.177Z,4.55
2023-01-25T04:31:14.590Z,4.45
2023-01-25T04:31:46.034Z,4.38
2023-01-25T04:32:17.522Z,4.10
2023-01-25T04:32:49.086Z,3.67
2023-01-25T04:33:20.867Z,4.57
2023-01-25T04:33:52.264Z,4.00
2023-01-25T04:34:23.620Z,4.20
2023-01-25T04:34:54.937Z,4.13
2023-01-25T04:35:26.293Z,3.85
2023-01-25T04:35:57.763Z,4.80
2023-01-25T04:36:29.111Z,5.47
2023-01-25T04:37:00.504Z,3.33
2023-01-25T04:37:31.871Z,4.20
2023-01-25T04:38:03.205Z,4.82
2023-01-25T04:38:34.576Z,4.13
2023-01-25T04:39:05.930Z,4.88
2023-01-25T04:39:37.291Z,3.88
2023-01-25T04:40:09.375Z,3.85
2023-01-25T04:40:40.738Z,4.18
2023-01-25T04:41:12.072Z,3.72
2023-01-25T04:41:44.753Z,3.78
2023-01-25T04:42:16.230Z,3.83
2023-01-25T04:42:47.599Z,4.80
2023-01-25T04:43:19.713Z,4.38
2023-01-25T04:43:51.070Z,4.70
2023-01-25T04:44:22.404Z,4.13
2023-01-25T04:44:53.730Z,3.72
2023-01-25T04:45:25.121Z,3.60
2023-01-25T04:45:56.514Z,4.43
2023-01-25T04:46:27.886Z,4.17
2023-01-25T04:46:59.258Z,3.95
2023-01-25T04:47:30.592Z,4.07
2023-01-25T04:48:03.045Z,4.50
2023-01-25T04:48:34.417Z,3.92
2023-01-25T04:49:05.776Z,4.28
2023-01-25T04:49:37.136Z,3.22
2023-01-25T04:50:08.763Z,3.85
2023-01-25T04:50:40.679Z,4.07
2023-01-25T04:51:12.073Z,3.83
2023-01-25T04:51:43.430Z,4.28
2023-01-25T04:52:14.779Z,4.07
2023-01-25T04:52:46.138Z,4.07
2023-01-25T04:53:17.500Z,4.13
2023-01-25T04:53:48.865Z,3.90
2023-01-25T04:54:20.306Z,4.07
2023-01-25T04:54:51.687Z,4.15
2023-01-25T04:55:23.216Z,3.83
2023-01-25T04:55:54.583Z,4.20
2023-01-25T04:56:25.916Z,4.32
2023-01-25T04:56:57.260Z,3.90
2023-01-25T04:57:28.597Z,3.47
2023-01-25T04:58:00.169Z,3.15
2023-01-25T04:58:31.505Z,4.13
2023-01-25T04:59:02.872Z,3.85
2023-01-25T04:59:34.253Z,4.00
2023-01-25T05:00:06.082Z,4.30
2023-01-25T05:00:37.453Z,4.27
2023-01-25T05:01:08.885Z,3.40
2023-01-25T05:01:40.318Z,4.03
2023-01-25T05:02:11.773Z,3.90
2023-01-25T05:02:43.266Z,4.38
2023-01-25T05:03:14.587Z,4.33
2023-01-25T05:03:45.977Z,3.63
2023-01-25T05:04:17.364Z,4.03
2023-01-25T05:04:48.731Z,4.22
2023-01-25T05:05:20.146Z,4.25
2023-01-25T05:05:51.500Z,4.00
2023-01-25T05:06:22.949Z,3.38
2023-01-25T05:06:54.330Z,3.03
2023-01-25T05:07:25.695Z,4.28
2023-01-25T05:07:57.144Z,4.15
2023-01-25T05:08:28.562Z,4.45
2023-01-25T05:08:59.919Z,4.03
2023-01-25T05:09:31.298Z,4.18
2023-01-25T05:10:03.239Z,3.70
2023-01-25T05:10:34.591Z,4.28
2023-01-25T05:11:05.933Z,4.85
2023-01-25T05:11:37.277Z,4.40
2023-01-25T05:12:08.621Z,4.10
2023-01-25T05:12:39.982Z,4.63
2023-01-25T05:13:11.398Z,4.57
2023-01-25T05:13:42.745Z,4.20
2023-01-25T05:14:14.097Z,4.35
2023-01-25T05:14:45.465Z,3.42
2023-01-25T05:15:16.860Z,4.18
2023-01-25T05:15:48.228Z,5.05
2023-01-25T05:16:19.632Z,4.60
2023-01-25T05:16:51.056Z,3.70
2023-01-25T05:17:22.527Z,3.80
2023-01-25T05:17:53.895Z,4.13
2023-01-25T05:18:26.300Z,4.53
2023-01-25T05:19:00.547Z,4.05
2023-01-25T05:19:32.393Z,4.75
2023-01-25T05:20:03.838Z,5.50
2023-01-25T05:20:35.620Z,4.53
2023-01-25T05:21:06.947Z,5.20
2023-01-25T05:21:38.373Z,5.15
2023-01-25T05:22:13.915Z,4.15
2023-01-25T05:22:45.282Z,4.38
2023-01-25T05:23:16.634Z,4.80
2023-01-25T05:23:48.024Z,4.80
2023-01-25T05:24:19.473Z,4.72
2023-01-25T05:24:50.874Z,4.38
2023-01-25T05:25:22.206Z,5.10
2023-01-25T05:25:53.595Z,4.30
2023-01-25T05:26:24.945Z,4.50
2023-01-25T05:26:56.975Z,4.70
2023-01-25T05:27:28.309Z,4.07
2023-01-25T05:27:59.660Z,4.55
2023-01-25T05:28:32.475Z,4.13
2023-01-25T05:29:03.826Z,4.20
2023-01-25T05:29:39.012Z,4.72
2023-01-25T05:30:10.575Z,5.10
2023-01-25T05:30:42.449Z,4.38
2023-01-25T05:31:13.865Z,4.47
2023-01-25T05:31:45.237Z,5.00
2023-01-25T05:32:18.416Z,4.55
2023-01-25T05:32:50.083Z,4.57
2023-01-25T05:33:21.436Z,4.38
2023-01-25T05:33:52.756Z,4.88
2023-01-25T05:34:24.162Z,4.75
2023-01-25T05:34:55.548Z,4.57
2023-01-25T05:35:27.094Z,4.35
2023-01-25T05:35:58.460Z,4.70
2023-01-25T05:36:29.883Z,5.18
2023-01-25T05:37:02.114Z,4.38
2023-01-25T05:37:33.430Z,4.78
2023-01-25T05:38:04.800Z,4.43
2023-01-25T05:38:36.162Z,5.13
2023-01-25T05:39:07.549Z,5.78
2023-01-25T05:39:38.928Z,5.25
2023-01-25T05:40:10.619Z,5.00
2023-01-25T05:40:41.993Z,5.32
2023-01-25T05:41:13.350Z,5.85
2023-01-25T05:41:44.743Z,6.07
2023-01-25T05:42:17.406Z,7.88
2023-01-25T05:42:58.351Z,7.40
2023-01-25T05:43:29.694Z,10.18
2023-01-25T05:44:01.031Z,9.63
2023-01-25T05:44:32.371Z,7.97
2023-01-25T05:45:03.845Z,7.57
2023-01-25T05:45:35.203Z,8.40
2023-01-25T05:46:06.578Z,8.38
2023-01-25T05:46:38.062Z,7.40
2023-01-25T05:47:13.344Z,6.80
2023-01-25T05:47:44.691Z,5.85
2023-01-25T05:48:16.057Z,5.57
2023-01-25T05:48:47.859Z,5.55
2023-01-25T05:49:19.225Z,6.32
2023-01-25T05:49:50.614Z,6.18
2023-01-25T05:50:22.512Z,6.45
2023-01-25T05:50:57.064Z,6.80
2023-01-25T05:51:28.401Z,6.00
2023-01-25T05:51:59.727Z,5.90
2023-01-25T05:52:31.110Z,4.97
2023-01-25T05:53:02.457Z,5.05
2023-01-25T05:53:33.837Z,6.20
2023-01-25T05:54:06.137Z,5.30
2023-01-25T05:54:37.500Z,5.57
2023-01-25T05:55:09.197Z,5.50
2023-01-25T05:55:40.671Z,5.00
2023-01-25T05:56:12.050Z,6.80
2023-01-25T05:56:43.814Z,5.90
2023-01-25T05:57:15.446Z,6.93
2023-01-25T05:57:46.831Z,6.55
2023-01-25T05:58:18.163Z,5.57
2023-01-25T05:58:56.100Z,7.00
2023-01-25T05:59:27.456Z,5.85
2023-01-25T05:59:58.790Z,5.63
2023-01-25T06:00:30.142Z,5.05
2023-01-25T06:01:02.778Z,5.53
2023-01-25T06:01:34.166Z,6.07
2023-01-25T06:02:05.522Z,5.50
2023-01-25T06:02:36.985Z,5.28
2023-01-25T06:03:08.743Z,5.97
2023-01-25T06:03:40.327Z,5.53
2023-01-25T06:04:15.299Z,6.30
2023-01-25T06:04:46.693Z,5.80
2023-01-25T06:05:18.031Z,5.40
2023-01-25T06:05:54.618Z,6.43
2023-01-25T06:06:26.139Z,5.25
2023-01-25T06:06:57.570Z,5.10
2023-01-25T06:07:28.922Z,5.72
2023-01-25T06:08:00.290Z,5.85
2023-01-25T06:08:32.032Z,5.90
2023-01-25T06:09:03.509Z,6.60
2023-01-25T06:09:34.839Z,5.95
2023-01-25T06:10:06.431Z,6.43
2023-01-25T06:10:37.772Z,6.53
2023-01-25T06:11:09.966Z,6.40
2023-01-25T06:11:43.222Z,7.03
2023-01-25T06:12:14.588Z,6.53
2023-01-25T06:12:45.970Z,6.60
2023-01-25T06:13:17.471Z,6.22
2023-01-25T06:13:49.186Z,6.60
2023-01-25T06:14:20.520Z,6.85
2023-01-25T06:14:51.874Z,7.72
2023-01-25T06:15:23.261Z,7.55
2023-01-25T06:15:55.457Z,9.13
2023-01-25T06:16:26.821Z,10.82
2023-01-25T06:16:58.228Z,9.83
2023-01-25T06:17:29.561Z,10.82
2023-01-25T06:18:00.923Z,8.50
2023-01-25T06:18:33.084Z,8.38
2023-01-25T06:19:05.400Z,8.75
2023-01-25T06:19:36.729Z,9.93
2023-01-25T06:20:08.435Z,13.57
2023-01-25T06:20:39.794Z,11.45
2023-01-25T06:21:11.263Z,9.52
2023-01-25T06:21:42.619Z,10.52
2023-01-25T06:22:14.385Z,11.02
2023-01-25T06:22:49.377Z,9.35
2023-01-25T06:23:20.756Z,9.15
2023-01-25T06:23:52.147Z,9.02
2023-01-25T06:24:23.744Z,8.40
2023-01-25T06:24:55.085Z,8.95
2023-01-25T06:25:26.460Z,9.40
2023-01-25T06:26:01.770Z,9.85
2023-01-25T06:26:33.292Z,9.57
2023-01-25T06:27:04.641Z,9.55
2023-01-25T06:27:35.955Z,8.68
2023-01-25T06:28:07.305Z,9.40
2023-01-25T06:28:38.850Z,9.35
2023-01-25T06:29:10.255Z,9.68
2023-01-25T06:29:41.690Z,10.23
2023-01-25T06:30:13.221Z,8.68
2023-01-25T06:30:44.604Z,9.40
2023-01-25T06:31:17.094Z,9.60
2023-01-25T06:31:48.568Z,8.88
2023-01-25T06:32:19.927Z,8.32
2023-01-25T06:32:51.301Z,10.05
2023-01-25T06:33:22.663Z,9.35
2023-01-25T06:33:54.031Z,9.00
2023-01-25T06:34:25.372Z,8.52
2023-01-25T06:34:56.737Z,8.50
2023-01-25T06:35:28.576Z,8.48
2023-01-25T06:36:00.758Z,8.23
2023-01-25T06:36:32.297Z,7.68
2023-01-25T06:37:03.741Z,7.78
2023-01-25T06:37:35.052Z,7.15
2023-01-25T06:38:06.595Z,7.47
2023-01-25T06:38:38.159Z,7.72
2023-01-25T06:39:09.525Z,7.78
2023-01-25T06:39:40.885Z,7.75
2023-01-25T06:40:12.333Z,7.70
2023-01-25T06:40:43.690Z,8.77
2023-01-25T06:41:15.041Z,8.57
2023-01-25T06:41:46.853Z,7.28
2023-01-25T06:42:18.201Z,7.85
2023-01-25T06:42:49.569Z,7.55
2023-01-25T06:43:20.943Z,7.70
2023-01-25T06:43:52.618Z,7.43
2023-01-25T06:44:23.965Z,7.82
2023-01-25T06:44:55.305Z,7.10
2023-01-25T06:45:26.654Z,8.07
2023-01-25T06:46:01.568Z,7.35
2023-01-25T06:46:32.956Z,7.45
2023-01-25T06:47:04.320Z,6.47
2023-01-25T06:47:35.667Z,7.18
2023-01-25T06:48:07.105Z,7.22
2023-01-25T06:48:38.659Z,7.15
2023-01-25T06:49:10.579Z,7.15
2023-01-25T06:49:41.944Z,7.70
2023-01-25T06:50:13.285Z,6.83
2023-01-25T06:50:44.663Z,7.47
2023-01-25T06:51:16.052Z,6.68
2023-01-25T06:51:47.408Z,7.10
2023-01-25T06:52:18.780Z,7.55
2023-01-25T06:52:53.281Z,7.28
2023-01-25T06:53:25.534Z,7.75
2023-01-25T06:53:56.863Z,7.13
2023-01-25T06:54:28.291Z,6.43
2023-01-25T06:54:59.659Z,8.23
2023-01-25T06:55:31.001Z,7.07
2023-01-25T06:56:06.539Z,6.30
2023-01-25T06:56:37.879Z,8.15
2023-01-25T06:57:09.232Z,7.32
2023-01-25T06:57:40.637Z,6.07
2023-01-25T06:58:12.110Z,6.85
2023-01-25T06:58:43.659Z,7.55
2023-01-25T06:59:15.066Z,7.88
2023-01-25T06:59:46.648Z,7.33
2023-01-25T07:00:18.200Z,8.18
2023-01-25T07:00:49.553Z,8.55
2023-01-25T07:01:22.180Z,8.38
2023-01-25T07:01:53.612Z,7.70
2023-01-25T07:02:25.095Z,8.07
2023-01-25T07:02:56.549Z,7.88
2023-01-25T07:03:28.471Z,7.55
2023-01-25T07:03:59.825Z,7.70
2023-01-25T07:04:31.184Z,7.97
2023-01-25T07:05:05.462Z,8.05
2023-01-25T07:05:36.805Z,8.07
2023-01-25T07:06:09.128Z,10.20
2023-01-25T07:06:40.494Z,11.27
2023-01-25T07:07:11.859Z,11.82
2023-01-25T07:07:46.207Z,11.70
2023-01-25T07:08:17.803Z,7.87